createdAt,value
2017-10-10T00:00:16.323Z,9.15
2017-10-10T00:00:50.017Z,9.80
2017-10-10T00:01:23.729Z,15.10
2017-10-10T00:01:57.432Z,11.95
2017-10-10T00:02:30.987Z,9.27
2017-10-10T00:03:05.468Z,13.02
2017-10-10T00:03:39.176Z,11.15
2017-10-10T00:04:13.197Z,11.52
2017-10-10T00:04:47.663Z,9.52
2017-10-10T00:05:21.391Z,8.80
2017-10-10T00:05:55.113Z,9.43
2017-10-10T00:06:29.056Z,17.87
2017-10-10T00:07:02.752Z,16.55
2017-10-10T00:07:36.447Z,10.73
2017-10-10T00:08:10.152Z,13.32
2017-10-10T00:08:44.610Z,11.60
2017-10-10T00:09:18.689Z,13.15
2017-10-10T00:09:52.385Z,14.00
2017-10-10T00:10:26.086Z,9.95
2017-10-10T00:11:00.792Z,12.85
2017-10-10T00:11:34.485Z,10.60
2017-10-10T00:12:08.184Z,12.52
2017-10-10T00:12:41.893Z,15.63
2017-10-10T00:13:15.588Z,12.80
2017-10-10T00:13:49.098Z,12.23
2017-10-10T00:14:23.415Z,15.73
2017-10-10T00:14:57.162Z,17.08
2017-10-10T00:15:30.860Z,14.43
2017-10-10T00:16:04.564Z,11.55
2017-10-10T00:16:39.083Z,13.23
2017-10-10T00:17:13.544Z,15.23
2017-10-10T00:17:47.254Z,11.15
2017-10-10T00:18:20.949Z,12.10
2017-10-10T00:18:54.644Z,10.65
2017-10-10T00:19:29.191Z,11.12
2017-10-10T00:20:02.906Z,11.40
2017-10-10T00:20:36.615Z,13.25
2017-10-10T00:21:10.308Z,8.55
2017-10-10T00:21:43.833Z,11.45
2017-10-10T00:22:18.144Z,14.13
2017-10-10T00:22:51.833Z,9.13
2017-10-10T00:23:25.533Z,11.23
2017-10-10T00:23:59.223Z,8.07
2017-10-10T00:24:33.018Z,11.35
2017-10-10T00:25:06.713Z,7.32
2017-10-10T00:25:40.404Z,8.85
2017-10-10T00:26:14.099Z,9.07
2017-10-10T00:26:47.805Z,9.02
2017-10-10T00:27:21.541Z,7.70
2017-10-10T00:27:56.009Z,14.13
2017-10-10T00:28:29.707Z,10.88
2017-10-10T00:29:03.427Z,18.77
2017-10-10T00:29:37.911Z,12.05
2017-10-10T00:30:11.621Z,9.77
2017-10-10T00:30:46.093Z,9.55
2017-10-10T00:31:19.818Z,12.02
2017-10-10T00:31:54.289Z,14.48
2017-10-10T00:32:27.972Z,7.50
2017-10-10T00:33:01.685Z,10.98
2017-10-10T00:33:35.386Z,10.25
2017-10-10T00:34:09.081Z,12.55
2017-10-10T00:34:43.600Z,12.95
2017-10-10T00:35:17.722Z,10.05
2017-10-10T00:35:51.442Z,16.50
2017-10-10T00:36:25.147Z,14.82
2017-10-10T00:36:58.850Z,13.35
2017-10-10T00:37:32.536Z,8.80
2017-10-10T00:38:06.269Z,12.57
2017-10-10T00:38:39.974Z,12.25
2017-10-10T00:39:13.673Z,13.73
2017-10-10T00:39:47.388Z,11.98
2017-10-10T00:40:21.090Z,12.95
2017-10-10T00:40:54.455Z,11.70
2017-10-10T00:41:28.160Z,16.20
2017-10-10T00:42:02.640Z,15.65
2017-10-10T00:42:36.342Z,11.73
2017-10-10T00:43:10.042Z,17.37
2017-10-10T00:43:43.749Z,14.05
2017-10-10T00:44:17.445Z,9.55
2017-10-10T00:44:52.223Z,19.12
2017-10-10T00:45:25.957Z,10.93
2017-10-10T00:46:00.423Z,13.95
2017-10-10T00:46:34.119Z,14.90
2017-10-10T00:47:07.849Z,18.98
2017-10-10T00:47:42.319Z,15.30
2017-10-10T00:48:15.829Z,10.75
2017-10-10T00:48:50.855Z,15.32
2017-10-10T00:49:24.553Z,15.57
2017-10-10T00:49:59.384Z,10.70
2017-10-10T00:50:33.855Z,15.05
2017-10-10T00:51:07.028Z,13.07
2017-10-10T00:51:40.725Z,16.00
2017-10-10T00:52:14.439Z,15.55
2017-10-10T00:52:48.904Z,12.70
2017-10-10T00:53:22.613Z,12.23
2017-10-10T00:53:55.973Z,11.43
2017-10-10T00:54:29.667Z,9.35
2017-10-10T00:55:03.406Z,11.70
2017-10-10T00:55:37.185Z,17.70
2017-10-10T00:56:10.983Z,20.00
2017-10-10T00:56:44.783Z,18.00
2017-10-10T00:57:18.569Z,12.77
2017-10-10T00:57:52.701Z,16.67
2017-10-10T00:58:25.719Z,16.15
2017-10-10T00:58:58.741Z,11.75
2017-10-10T00:59:32.454Z,16.58
2017-10-10T01:00:05.877Z,15.50
2017-10-10T01:00:40.017Z,14.73
2017-10-10T01:01:13.543Z,16.25
2017-10-10T01:01:47.241Z,16.23
2017-10-10T01:02:20.598Z,13.13
2017-10-10T01:02:54.319Z,15.57
2017-10-10T01:03:27.710Z,13.27
2017-10-10T01:04:01.404Z,13.60
2017-10-10T01:04:35.151Z,16.77
2017-10-10T01:05:09.213Z,11.70
2017-10-10T01:05:42.918Z,14.25
2017-10-10T01:06:16.613Z,13.23
2017-10-10T01:06:50.322Z,12.50
2017-10-10T01:07:23.685Z,13.00
2017-10-10T01:07:57.392Z,12.23
2017-10-10T01:08:31.097Z,13.82
2017-10-10T01:09:04.210Z,11.60
2017-10-10T01:09:38.681Z,11.57
2017-10-10T01:10:12.049Z,10.38
2017-10-10T01:10:45.760Z,14.85
2017-10-10T01:11:19.460Z,13.85
2017-10-10T01:11:52.833Z,17.05
2017-10-10T01:12:26.529Z,20.77
2017-10-10T01:13:00.242Z,15.45
2017-10-10T01:13:34.370Z,16.62
2017-10-10T01:14:08.078Z,14.75
2017-10-10T01:14:41.457Z,17.52
2017-10-10T01:15:15.529Z,13.60
2017-10-10T01:15:48.909Z,16.05
2017-10-10T01:16:22.262Z,18.00
2017-10-10T01:16:55.970Z,24.90
2017-10-10T01:17:30.270Z,22.13
2017-10-10T01:18:04.397Z,22.37
2017-10-10T01:18:38.116Z,28.95
2017-10-10T01:19:11.136Z,25.37
2017-10-10T01:19:49.889Z,22.37
2017-10-10T01:20:22.735Z,30.48
2017-10-10T01:20:55.752Z,35.72
2017-10-10T01:21:28.769Z,26.33
2017-10-10T01:22:02.892Z,30.70
2017-10-10T01:22:36.069Z,28.30
2017-10-10T01:23:09.420Z,26.85
2017-10-10T01:23:43.201Z,35.50
2017-10-10T01:24:17.111Z,43.47
2017-10-10T01:24:50.903Z,43.75
2017-10-10T01:25:24.696Z,51.45
2017-10-10T01:25:58.471Z,35.42
2017-10-10T01:26:31.494Z,44.20
2017-10-10T01:27:04.539Z,40.88
2017-10-10T01:27:38.347Z,34.50
2017-10-10T01:28:11.356Z,60.75
2017-10-10T01:28:44.378Z,70.12
2017-10-10T01:29:18.172Z,44.70
2017-10-10T01:29:51.958Z,47.10
2017-10-10T01:30:25.772Z,41.08
2017-10-10T01:30:59.132Z,37.53
2017-10-10T01:31:32.720Z,31.85
2017-10-10T01:32:06.500Z,37.72
2017-10-10T01:32:39.516Z,45.20
2017-10-10T01:33:12.528Z,57.00
2017-10-10T01:33:45.540Z,59.05
2017-10-10T01:34:19.327Z,43.15
2017-10-10T01:34:53.102Z,40.83
2017-10-10T01:35:26.816Z,41.78
2017-10-10T01:36:00.608Z,38.92
2017-10-10T01:36:34.404Z,44.33
2017-10-10T01:37:08.197Z,34.47
2017-10-10T01:37:41.824Z,35.20
2017-10-10T01:38:14.842Z,28.45
2017-10-10T01:38:47.851Z,31.27
2017-10-10T01:39:20.859Z,33.47
2017-10-10T01:39:53.871Z,29.23
2017-10-10T01:40:28.497Z,55.97
2017-10-10T01:41:02.291Z,34.08
2017-10-10T01:41:36.434Z,28.35
2017-10-10T01:42:09.457Z,21.77
2017-10-10T01:42:43.589Z,34.42
2017-10-10T01:43:16.600Z,33.88
2017-10-10T01:43:49.969Z,42.58
2017-10-10T01:44:22.980Z,50.75
2017-10-10T01:44:56.569Z,29.52
2017-10-10T01:45:30.411Z,27.52
2017-10-10T01:46:03.782Z,29.85
2017-10-10T01:46:37.160Z,27.37
2017-10-10T01:47:10.592Z,27.20
2017-10-10T01:47:44.417Z,30.00
2017-10-10T01:48:18.884Z,22.70
2017-10-10T01:48:52.248Z,32.42
2017-10-10T01:49:25.604Z,30.70
2017-10-10T01:49:59.315Z,23.98
2017-10-10T01:50:33.399Z,38.05
2017-10-10T01:51:07.096Z,26.05
2017-10-10T01:51:40.805Z,32.50
2017-10-10T01:52:14.316Z,32.72
2017-10-10T01:52:48.006Z,30.37
2017-10-10T01:53:21.699Z,27.02
2017-10-10T01:53:55.049Z,31.10
2017-10-10T01:54:28.444Z,48.55
2017-10-10T01:55:02.186Z,32.28
2017-10-10T01:55:36.321Z,27.70
2017-10-10T01:56:09.693Z,20.20
2017-10-10T01:56:43.406Z,33.97
2017-10-10T01:57:16.769Z,32.50
2017-10-10T01:57:50.465Z,28.45
2017-10-10T01:58:24.194Z,41.30
2017-10-10T01:58:58.690Z,44.40
2017-10-10T01:59:32.399Z,24.08
2017-10-10T02:00:06.889Z,40.17
2017-10-10T02:00:40.862Z,38.97
2017-10-10T02:01:13.878Z,26.12
2017-10-10T02:01:46.958Z,34.13
2017-10-10T02:02:20.755Z,36.83
2017-10-10T02:02:55.233Z,38.95
2017-10-10T02:03:28.618Z,35.47
2017-10-10T02:04:02.326Z,28.10
2017-10-10T02:04:36.800Z,29.52
2017-10-10T02:05:10.180Z,40.10
2017-10-10T02:05:43.777Z,32.55
2017-10-10T02:06:17.500Z,27.27
2017-10-10T02:06:51.980Z,53.70
2017-10-10T02:07:25.706Z,47.60
2017-10-10T02:07:59.843Z,37.85
2017-10-10T02:08:33.208Z,39.75
2017-10-10T02:09:06.583Z,46.97
2017-10-10T02:09:40.301Z,23.50
2017-10-10T02:10:14.017Z,53.92
2017-10-10T02:10:47.774Z,45.50
2017-10-10T02:11:21.292Z,57.15
2017-10-10T02:11:54.677Z,45.35
2017-10-10T02:12:28.376Z,62.67
2017-10-10T02:13:02.852Z,39.10
2017-10-10T02:13:36.578Z,42.50
2017-10-10T02:14:10.300Z,20.42
2017-10-10T02:14:44.777Z,28.25
2017-10-10T02:15:18.492Z,23.67
2017-10-10T02:15:53.244Z,45.30
2017-10-10T02:16:26.761Z,46.40
2017-10-10T02:17:00.472Z,41.65
2017-10-10T02:17:34.956Z,47.22
2017-10-10T02:18:08.690Z,47.67
2017-10-10T02:18:43.194Z,29.45
2017-10-10T02:19:16.719Z,40.17
2017-10-10T02:19:50.240Z,50.67
2017-10-10T02:20:23.765Z,26.62
2017-10-10T02:20:57.846Z,51.65
2017-10-10T02:21:32.312Z,37.33
2017-10-10T02:22:06.013Z,30.45
2017-10-10T02:22:39.728Z,44.78
2017-10-10T02:23:14.196Z,30.23
2017-10-10T02:23:47.924Z,32.63
2017-10-10T02:24:21.621Z,33.70
2017-10-10T02:24:56.094Z,28.58
2017-10-10T02:25:29.804Z,40.47
2017-10-10T02:26:03.544Z,46.67
2017-10-10T02:26:37.245Z,36.83
2017-10-10T02:27:10.956Z,35.08
2017-10-10T02:27:44.677Z,37.58
2017-10-10T02:28:19.157Z,32.00
2017-10-10T02:28:52.873Z,29.77
2017-10-10T02:29:27.349Z,43.67
2017-10-10T02:30:01.057Z,26.48
2017-10-10T02:30:34.584Z,52.88
2017-10-10T02:31:08.532Z,39.22
2017-10-10T02:31:42.249Z,28.90
2017-10-10T02:32:16.737Z,23.67
2017-10-10T02:32:50.449Z,29.50
2017-10-10T02:33:24.747Z,48.08
2017-10-10T02:33:58.284Z,43.83
2017-10-10T02:34:31.988Z,28.70
2017-10-10T02:35:05.700Z,64.75
2017-10-10T02:35:39.432Z,35.80
2017-10-10T02:36:13.515Z,30.08
2017-10-10T02:36:47.798Z,33.17
2017-10-10T02:37:21.509Z,28.17
2017-10-10T02:37:55.796Z,33.03
2017-10-10T02:38:30.088Z,47.28
2017-10-10T02:39:03.466Z,36.47
2017-10-10T02:39:37.170Z,51.03
2017-10-10T02:40:11.462Z,60.63
2017-10-10T02:40:44.980Z,51.70
2017-10-10T02:41:19.598Z,37.58
2017-10-10T02:41:53.125Z,40.55
2017-10-10T02:42:26.665Z,38.58
2017-10-10T02:43:00.957Z,32.70
2017-10-10T02:43:35.249Z,34.25
2017-10-10T02:44:09.724Z,32.17
2017-10-10T02:44:43.446Z,56.75
2017-10-10T02:45:16.976Z,25.73
2017-10-10T02:45:51.049Z,32.13
2017-10-10T02:46:25.541Z,47.40
2017-10-10T02:46:59.248Z,30.12
2017-10-10T02:47:33.736Z,30.17
2017-10-10T02:48:07.446Z,28.17
2017-10-10T02:48:41.921Z,32.08
2017-10-10T02:49:15.661Z,35.67
2017-10-10T02:49:49.400Z,31.87
2017-10-10T02:50:23.113Z,46.60
2017-10-10T02:50:56.917Z,35.95
2017-10-10T02:51:31.061Z,30.20
2017-10-10T02:52:04.094Z,36.55
2017-10-10T02:52:38.573Z,42.80
2017-10-10T02:53:12.291Z,22.42
2017-10-10T02:53:46.768Z,35.42
2017-10-10T02:54:20.491Z,25.83
2017-10-10T02:54:54.997Z,42.85
2017-10-10T02:55:29.472Z,32.85
2017-10-10T02:56:03.180Z,41.10
2017-10-10T02:56:37.029Z,36.13
2017-10-10T02:57:10.746Z,39.90
2017-10-10T02:57:44.469Z,31.55
2017-10-10T02:58:18.961Z,40.42
2017-10-10T02:58:52.694Z,49.40
2017-10-10T02:59:26.398Z,32.42
2017-10-10T03:00:00.106Z,39.47
2017-10-10T03:00:33.886Z,39.65
2017-10-10T03:01:07.613Z,46.28
2017-10-10T03:01:41.342Z,47.97
2017-10-10T03:02:15.053Z,44.35
2017-10-10T03:02:48.765Z,38.25
2017-10-10T03:03:22.482Z,58.47
2017-10-10T03:03:56.310Z,54.38
2017-10-10T03:04:30.014Z,43.30
2017-10-10T03:05:03.724Z,35.15
2017-10-10T03:05:37.088Z,42.78
2017-10-10T03:06:10.792Z,41.08
2017-10-10T03:06:44.522Z,32.47
2017-10-10T03:07:18.989Z,43.45
2017-10-10T03:07:52.698Z,46.15
2017-10-10T03:08:26.435Z,37.67
2017-10-10T03:09:00.900Z,33.67
2017-10-10T03:09:34.611Z,46.67
2017-10-10T03:10:09.096Z,36.17
2017-10-10T03:10:42.807Z,42.42
2017-10-10T03:11:16.529Z,38.40
2017-10-10T03:11:50.258Z,32.50
2017-10-10T03:12:23.993Z,37.25
2017-10-10T03:12:58.460Z,31.77
2017-10-10T03:13:32.174Z,35.55
2017-10-10T03:14:05.883Z,55.58
2017-10-10T03:14:40.350Z,29.25
2017-10-10T03:15:14.053Z,41.15
2017-10-10T03:15:47.781Z,33.03
2017-10-10T03:16:21.557Z,37.03
2017-10-10T03:16:56.386Z,42.95
2017-10-10T03:17:30.849Z,36.15
2017-10-10T03:18:04.550Z,51.45
2017-10-10T03:18:38.254Z,31.70
2017-10-10T03:19:11.964Z,34.45
2017-10-10T03:19:46.421Z,47.33
2017-10-10T03:20:20.140Z,36.50
2017-10-10T03:20:53.853Z,40.33
2017-10-10T03:21:27.562Z,49.35
2017-10-10T03:22:01.301Z,35.70
2017-10-10T03:22:34.668Z,34.38
2017-10-10T03:23:08.377Z,31.75
2017-10-10T03:23:42.076Z,38.58
2017-10-10T03:24:16.544Z,42.28
2017-10-10T03:24:50.250Z,36.85
2017-10-10T03:25:23.965Z,37.88
2017-10-10T03:25:57.659Z,31.50
2017-10-10T03:26:32.153Z,33.42
2017-10-10T03:27:06.180Z,40.95
2017-10-10T03:27:39.912Z,31.35
2017-10-10T03:28:13.640Z,34.63
2017-10-10T03:28:47.361Z,37.55
2017-10-10T03:29:21.070Z,35.55
2017-10-10T03:29:54.785Z,29.05
2017-10-10T03:30:28.626Z,33.47
2017-10-10T03:31:03.820Z,37.25
2017-10-10T03:31:37.535Z,33.92
2017-10-10T03:32:11.851Z,40.53
2017-10-10T03:32:45.576Z,36.90
2017-10-10T03:33:19.369Z,39.13
2017-10-10T03:33:53.077Z,25.77
2017-10-10T03:34:26.778Z,41.65
2017-10-10T03:35:01.801Z,35.63
2017-10-10T03:35:35.336Z,43.58
2017-10-10T03:36:09.059Z,33.22
2017-10-10T03:36:42.895Z,27.80
2017-10-10T03:37:17.512Z,31.60
2017-10-10T03:37:51.813Z,35.33
2017-10-10T03:38:26.323Z,33.28
2017-10-10T03:39:00.865Z,30.90
2017-10-10T03:39:34.581Z,34.72
2017-10-10T03:40:08.311Z,36.45
2017-10-10T03:40:42.784Z,32.15
2017-10-10T03:41:16.505Z,35.50
2017-10-10T03:41:51.015Z,34.67
2017-10-10T03:42:25.319Z,32.17
2017-10-10T03:42:59.808Z,31.58
2017-10-10T03:43:33.536Z,31.67
2017-10-10T03:44:08.032Z,32.78
2017-10-10T03:44:42.506Z,36.30
2017-10-10T03:45:16.044Z,25.40
2017-10-10T03:45:49.760Z,31.75
2017-10-10T03:46:23.472Z,36.03
2017-10-10T03:46:57.180Z,34.55
2017-10-10T03:47:31.212Z,28.25
2017-10-10T03:48:04.920Z,25.10
2017-10-10T03:48:38.678Z,29.60
2017-10-10T03:49:13.150Z,32.40
2017-10-10T03:49:46.858Z,29.15
2017-10-10T03:50:20.581Z,36.35
2017-10-10T03:50:54.284Z,34.88
2017-10-10T03:51:27.996Z,27.40
2017-10-10T03:52:01.756Z,27.73
2017-10-10T03:52:35.508Z,32.63
2017-10-10T03:53:09.220Z,31.48
2017-10-10T03:53:43.693Z,32.85
2017-10-10T03:54:17.407Z,30.40
2017-10-10T03:54:51.131Z,24.87
2017-10-10T03:55:24.829Z,29.23
2017-10-10T03:55:58.542Z,32.83
2017-10-10T03:56:32.283Z,29.23
2017-10-10T03:57:06.765Z,33.10
2017-10-10T03:57:40.149Z,35.00
2017-10-10T03:58:13.871Z,25.00
2017-10-10T03:58:48.372Z,31.00
2017-10-10T03:59:22.894Z,35.83
2017-10-10T03:59:56.609Z,31.42
2017-10-10T04:00:29.986Z,36.17
2017-10-10T04:01:03.694Z,32.58
2017-10-10T04:01:37.413Z,31.10
2017-10-10T04:02:11.125Z,38.58
2017-10-10T04:02:45.947Z,32.65
2017-10-10T04:03:20.428Z,28.62
2017-10-10T04:03:54.146Z,34.92
2017-10-10T04:04:28.624Z,35.58
2017-10-10T04:05:02.444Z,35.05
2017-10-10T04:05:36.925Z,42.78
2017-10-10T04:06:10.452Z,34.67
2017-10-10T04:06:44.167Z,33.00
2017-10-10T04:07:17.883Z,33.47
2017-10-10T04:07:51.602Z,36.70
2017-10-10T04:08:25.131Z,26.10
2017-10-10T04:08:58.685Z,33.65
2017-10-10T04:09:33.277Z,38.63
2017-10-10T04:10:06.994Z,31.12
2017-10-10T04:10:40.712Z,36.15
2017-10-10T04:11:14.256Z,37.30
2017-10-10T04:11:48.745Z,49.22
2017-10-10T04:12:22.461Z,40.50
2017-10-10T04:12:56.949Z,44.30
2017-10-10T04:13:30.467Z,48.05
2017-10-10T04:14:04.206Z,28.98
2017-10-10T04:14:38.038Z,42.38
2017-10-10T04:15:12.324Z,36.08
2017-10-10T04:15:46.056Z,40.12
2017-10-10T04:16:19.788Z,37.95
2017-10-10T04:16:53.514Z,39.65
2017-10-10T04:17:27.987Z,36.25
2017-10-10T04:18:02.020Z,43.92
2017-10-10T04:18:36.492Z,32.13
2017-10-10T04:19:10.221Z,35.85
2017-10-10T04:19:44.715Z,46.25
2017-10-10T04:20:18.425Z,43.63
2017-10-10T04:20:52.380Z,41.33
2017-10-10T04:21:26.091Z,41.95
2017-10-10T04:22:00.571Z,40.47
2017-10-10T04:22:34.277Z,49.55
2017-10-10T04:23:08.015Z,43.20
2017-10-10T04:23:41.734Z,35.95
2017-10-10T04:24:15.477Z,39.72
2017-10-10T04:24:49.949Z,40.22
2017-10-10T04:25:23.657Z,51.78
2017-10-10T04:25:57.433Z,34.60
2017-10-10T04:26:31.143Z,39.25
2017-10-10T04:27:04.860Z,40.17
2017-10-10T04:27:38.981Z,45.65
2017-10-10T04:28:13.070Z,35.95
2017-10-10T04:28:47.016Z,44.97
2017-10-10T04:29:22.237Z,43.45
2017-10-10T04:29:55.957Z,51.90
2017-10-10T04:30:30.425Z,47.42
2017-10-10T04:31:04.167Z,47.85
2017-10-10T04:31:37.872Z,37.47
2017-10-10T04:32:11.592Z,35.20
2017-10-10T04:32:45.338Z,45.15
2017-10-10T04:33:19.068Z,43.20
2017-10-10T04:33:52.784Z,36.10
2017-10-10T04:34:26.494Z,44.20
2017-10-10T04:35:01.013Z,46.80
2017-10-10T04:35:35.320Z,39.42
2017-10-10T04:36:09.818Z,42.38
2017-10-10T04:36:44.302Z,43.80
2017-10-10T04:37:18.028Z,33.25
2017-10-10T04:37:52.333Z,31.52
2017-10-10T04:38:26.527Z,41.42
2017-10-10T04:39:00.669Z,41.47
2017-10-10T04:39:34.405Z,40.72
2017-10-10T04:40:08.126Z,39.58
2017-10-10T04:40:41.700Z,46.47
2017-10-10T04:41:16.219Z,40.15
2017-10-10T04:41:49.998Z,35.65
2017-10-10T04:42:24.517Z,40.97
2017-10-10T04:42:58.232Z,39.10
2017-10-10T04:43:31.976Z,40.63
2017-10-10T04:44:06.466Z,39.90
2017-10-10T04:44:40.189Z,43.90
2017-10-10T04:45:14.689Z,37.70
2017-10-10T04:45:49.175Z,44.75
2017-10-10T04:46:22.881Z,45.50
2017-10-10T04:46:56.607Z,42.00
2017-10-10T04:47:30.358Z,41.03
2017-10-10T04:48:04.171Z,38.83
2017-10-10T04:48:39.025Z,42.47
2017-10-10T04:49:12.739Z,34.47
2017-10-10T04:49:46.472Z,40.40
2017-10-10T04:50:21.050Z,45.42
2017-10-10T04:50:54.769Z,40.33
2017-10-10T04:51:29.240Z,41.92
2017-10-10T04:52:02.960Z,38.20
2017-10-10T04:52:37.475Z,41.15
2017-10-10T04:53:11.990Z,41.10
2017-10-10T04:53:46.835Z,44.88
2017-10-10T04:54:20.558Z,51.05
2017-10-10T04:54:54.285Z,68.60
2017-10-10T04:55:28.779Z,46.55
2017-10-10T04:56:03.266Z,41.05
2017-10-10T04:56:37.098Z,38.75
2017-10-10T04:57:11.572Z,42.62
2017-10-10T04:57:45.097Z,42.78
2017-10-10T04:58:19.402Z,41.35
2017-10-10T04:58:54.025Z,42.45
2017-10-10T04:59:27.437Z,45.08
2017-10-10T05:00:01.182Z,37.67
2017-10-10T05:00:35.668Z,40.58
2017-10-10T05:01:09.465Z,37.42
2017-10-10T05:01:43.203Z,46.67
2017-10-10T05:02:16.929Z,46.20
2017-10-10T05:02:50.665Z,42.85
2017-10-10T05:03:25.133Z,43.75
2017-10-10T05:03:59.169Z,41.30
2017-10-10T05:04:33.646Z,39.63
2017-10-10T05:05:07.356Z,41.00
2017-10-10T05:05:41.833Z,37.67
2017-10-10T05:06:15.552Z,41.25
2017-10-10T05:06:50.030Z,32.58
2017-10-10T05:07:23.733Z,43.25
2017-10-10T05:07:57.478Z,42.58
2017-10-10T05:08:31.214Z,39.90
2017-10-10T05:09:04.061Z,40.67
2017-10-10T05:09:37.785Z,44.85
2017-10-10T05:10:12.273Z,42.65
2017-10-10T05:10:45.984Z,42.20
2017-10-10T05:11:19.525Z,43.75
2017-10-10T05:11:53.232Z,50.08
2017-10-10T05:12:26.951Z,34.35
2017-10-10T05:13:00.653Z,42.90
2017-10-10T05:13:35.266Z,39.65
2017-10-10T05:14:10.114Z,39.70
2017-10-10T05:14:43.834Z,39.75
2017-10-10T05:15:17.549Z,39.63
2017-10-10T05:15:52.034Z,43.97
2017-10-10T05:16:25.758Z,37.30
2017-10-10T05:17:00.233Z,46.08
2017-10-10T05:17:33.756Z,44.55
2017-10-10T05:18:08.060Z,42.53
2017-10-10T05:18:42.529Z,51.13
2017-10-10T05:19:16.272Z,46.90
2017-10-10T05:19:50.004Z,43.00
2017-10-10T05:20:23.704Z,35.38
2017-10-10T05:20:56.884Z,37.33
2017-10-10T05:21:30.593Z,45.67
2017-10-10T05:22:05.081Z,36.40
2017-10-10T05:22:38.798Z,41.90
2017-10-10T05:23:12.392Z,37.47
2017-10-10T05:23:46.868Z,38.95
2017-10-10T05:24:20.950Z,37.10
2017-10-10T05:24:54.910Z,40.17
2017-10-10T05:25:28.845Z,42.70
2017-10-10T05:26:02.221Z,43.55
2017-10-10T05:26:35.591Z,44.83
2017-10-10T05:27:09.312Z,50.92
2017-10-10T05:27:43.035Z,54.05
2017-10-10T05:28:17.499Z,39.80
2017-10-10T05:28:51.204Z,42.15
2017-10-10T05:29:24.584Z,40.15
2017-10-10T05:29:58.291Z,43.25
2017-10-10T05:30:31.997Z,48.63
2017-10-10T05:31:05.783Z,40.15
2017-10-10T05:31:39.495Z,46.83
2017-10-10T05:32:13.629Z,44.03
2017-10-10T05:32:46.458Z,46.95
2017-10-10T05:33:20.936Z,48.03
2017-10-10T05:33:54.301Z,47.72
2017-10-10T05:34:27.677Z,45.63
2017-10-10T05:35:01.028Z,45.08
2017-10-10T05:35:34.206Z,46.22
2017-10-10T05:36:07.568Z,49.15
2017-10-10T05:36:42.041Z,48.80
2017-10-10T05:37:15.763Z,42.20
2017-10-10T05:37:50.249Z,42.40
2017-10-10T05:38:23.961Z,45.83
2017-10-10T05:38:58.438Z,40.95
2017-10-10T05:39:32.280Z,42.47
2017-10-10T05:40:05.994Z,41.40
2017-10-10T05:40:39.696Z,44.72
2017-10-10T05:41:13.416Z,49.30
2017-10-10T05:41:47.643Z,52.42
2017-10-10T05:42:22.107Z,50.53
2017-10-10T05:42:55.620Z,45.83
2017-10-10T05:43:29.330Z,45.45
2017-10-10T05:44:03.808Z,51.83
2017-10-10T05:44:37.561Z,45.10
2017-10-10T05:45:11.284Z,49.92
2017-10-10T05:45:45.006Z,49.90
2017-10-10T05:46:19.300Z,42.38
2017-10-10T05:46:53.777Z,42.90
2017-10-10T05:47:27.496Z,49.25
2017-10-10T05:48:01.216Z,46.88
2017-10-10T05:48:34.757Z,47.00
2017-10-10T05:49:08.476Z,53.50
2017-10-10T05:49:43.009Z,48.70
2017-10-10T05:50:16.721Z,50.70
2017-10-10T05:50:50.439Z,38.80
2017-10-10T05:51:24.153Z,56.35
2017-10-10T05:51:58.630Z,47.25
2017-10-10T05:52:32.343Z,57.80
2017-10-10T05:53:06.084Z,51.75
2017-10-10T05:53:39.789Z,43.35
2017-10-10T05:54:13.498Z,48.10
2017-10-10T05:54:47.246Z,50.58
2017-10-10T05:55:20.977Z,46.47
2017-10-10T05:55:54.688Z,38.70
2017-10-10T05:56:28.394Z,45.95
2017-10-10T05:57:03.004Z,44.35
2017-10-10T05:57:37.476Z,45.67
2017-10-10T05:58:11.183Z,49.45
2017-10-10T05:58:44.996Z,48.50
2017-10-10T05:59:19.466Z,55.80
2017-10-10T05:59:53.513Z,48.80
2017-10-10T06:00:27.983Z,46.67
2017-10-10T06:01:01.693Z,46.58
2017-10-10T06:01:35.418Z,44.55
2017-10-10T06:02:09.135Z,51.55
2017-10-10T06:02:42.849Z,51.20
2017-10-10T06:03:16.573Z,43.17
2017-10-10T06:03:50.854Z,46.95
2017-10-10T06:04:24.393Z,58.47
2017-10-10T06:04:58.456Z,53.35
2017-10-10T06:05:32.929Z,48.92
2017-10-10T06:06:06.625Z,44.42
2017-10-10T06:06:40.445Z,47.80
2017-10-10T06:07:14.930Z,47.33
2017-10-10T06:07:48.465Z,41.67
2017-10-10T06:08:22.188Z,45.33
2017-10-10T06:08:55.916Z,48.17
2017-10-10T06:09:30.440Z,41.10
2017-10-10T06:10:04.013Z,49.25
2017-10-10T06:10:38.505Z,43.92
2017-10-10T06:11:12.225Z,44.95
2017-10-10T06:11:46.697Z,43.17
2017-10-10T06:12:20.415Z,50.05
2017-10-10T06:12:54.907Z,45.40
2017-10-10T06:13:28.623Z,45.67
2017-10-10T06:14:03.092Z,48.85
2017-10-10T06:14:36.798Z,44.45
2017-10-10T06:15:11.631Z,52.50
2017-10-10T06:15:46.141Z,47.47
2017-10-10T06:16:20.421Z,50.92
2017-10-10T06:16:54.136Z,38.97
2017-10-10T06:17:28.612Z,43.10
2017-10-10T06:18:02.317Z,46.67
2017-10-10T06:18:36.025Z,61.10
2017-10-10T06:19:10.499Z,44.83
2017-10-10T06:19:44.201Z,45.15
2017-10-10T06:20:17.925Z,52.20
2017-10-10T06:20:51.632Z,46.42
2017-10-10T06:21:25.339Z,45.40
2017-10-10T06:21:59.049Z,46.90
2017-10-10T06:22:32.764Z,49.78
2017-10-10T06:23:07.361Z,47.42
2017-10-10T06:23:41.068Z,49.90
2017-10-10T06:24:15.549Z,48.78
2017-10-10T06:24:49.252Z,45.38
2017-10-10T06:25:23.184Z,45.15
2017-10-10T06:25:56.958Z,37.38
2017-10-10T06:26:30.682Z,41.37
2017-10-10T06:27:04.392Z,36.90
2017-10-10T06:27:38.107Z,40.60
2017-10-10T06:28:11.800Z,40.67
2017-10-10T06:28:45.327Z,42.58
2017-10-10T06:29:18.848Z,45.38
2017-10-10T06:29:52.390Z,42.30
2017-10-10T06:30:26.392Z,43.05
2017-10-10T06:31:00.097Z,42.15
2017-10-10T06:31:33.628Z,42.40
2017-10-10T06:32:07.340Z,39.85
2017-10-10T06:32:41.877Z,43.45
2017-10-10T06:33:15.744Z,45.88
2017-10-10T06:33:50.544Z,42.50
2017-10-10T06:34:25.018Z,34.97
2017-10-10T06:34:58.758Z,39.40
2017-10-10T06:35:33.267Z,40.45
2017-10-10T06:36:07.751Z,41.88
2017-10-10T06:36:41.466Z,42.25
2017-10-10T06:37:15.944Z,44.15
2017-10-10T06:37:49.666Z,37.03
2017-10-10T06:38:24.144Z,40.33
2017-10-10T06:38:57.894Z,38.97
2017-10-10T06:39:31.615Z,38.50
2017-10-10T06:40:05.345Z,32.47
2017-10-10T06:40:40.166Z,38.00
2017-10-10T06:41:14.651Z,39.72
2017-10-10T06:41:48.368Z,38.75
2017-10-10T06:42:22.092Z,37.60
2017-10-10T06:42:55.797Z,42.90
2017-10-10T06:43:29.535Z,42.13
2017-10-10T06:44:04.051Z,33.80
2017-10-10T06:44:37.759Z,36.40
2017-10-10T06:45:11.477Z,38.72
2017-10-10T06:45:45.574Z,38.80
2017-10-10T06:46:19.313Z,43.97
2017-10-10T06:46:53.794Z,45.63
2017-10-10T06:47:27.616Z,37.92
2017-10-10T06:48:02.090Z,39.95
2017-10-10T06:48:35.613Z,41.70
2017-10-10T06:49:10.189Z,35.15
2017-10-10T06:49:43.924Z,37.28
2017-10-10T06:50:17.640Z,35.65
2017-10-10T06:50:51.364Z,39.60
2017-10-10T06:51:25.070Z,42.65
2017-10-10T06:51:58.600Z,38.63
2017-10-10T06:52:32.325Z,35.78
2017-10-10T06:53:05.870Z,41.40
2017-10-10T06:53:39.609Z,40.25
2017-10-10T06:54:13.336Z,39.05
2017-10-10T06:54:47.820Z,45.12
2017-10-10T06:55:21.531Z,42.30
2017-10-10T06:55:56.353Z,40.00
2017-10-10T06:56:30.134Z,36.30
2017-10-10T06:57:04.606Z,43.85
2017-10-10T06:57:38.317Z,36.97
2017-10-10T06:58:12.125Z,37.03
2017-10-10T06:58:46.601Z,42.47
2017-10-10T06:59:20.315Z,41.17
2017-10-10T06:59:54.931Z,35.92
2017-10-10T07:00:29.414Z,37.88
2017-10-10T07:01:03.132Z,40.15
2017-10-10T07:01:37.613Z,35.25
2017-10-10T07:02:11.341Z,39.28
2017-10-10T07:02:45.831Z,45.28
2017-10-10T07:03:20.353Z,38.65
2017-10-10T07:03:54.849Z,38.85
2017-10-10T07:04:29.158Z,37.58
2017-10-10T07:05:02.861Z,43.08
2017-10-10T07:05:37.345Z,39.58
2017-10-10T07:06:11.066Z,41.53
2017-10-10T07:06:44.796Z,38.92
2017-10-10T07:07:18.496Z,40.03
2017-10-10T07:07:52.219Z,39.30
2017-10-10T07:08:26.717Z,36.72
2017-10-10T07:09:00.423Z,38.58
2017-10-10T07:09:34.910Z,34.88
2017-10-10T07:10:08.637Z,38.38
2017-10-10T07:10:42.368Z,36.72
2017-10-10T07:11:16.104Z,38.88
2017-10-10T07:11:50.599Z,38.30
2017-10-10T07:12:24.329Z,38.00
2017-10-10T07:12:58.045Z,40.20
2017-10-10T07:13:31.755Z,42.45
2017-10-10T07:14:05.289Z,37.13
2017-10-10T07:14:39.012Z,40.35
2017-10-10T07:15:12.753Z,37.20
2017-10-10T07:15:47.234Z,37.58
2017-10-10T07:16:21.285Z,40.67
2017-10-10T07:16:55.003Z,35.47